»·PEaware :: AFR250 LFMN-KMCO

AFR250 :: LFMN-KMCO

FLIGHT INFORMATION

Flight Status: Arrived
Operator:
Air France
More flights by this operator :: More flights under this callsign
Pilot: Anonymous 13363 (13363)
Aircraft: AIRBUS A330-200
(A332)
More flights by this aircraft type
Origin: LFMN Nice/Cote d'Azur
France
Destination: KMCO Orlando Intl
United States
More flights between these airports :: More routes between these airports
Route: BODR6A BODRU UM616 LERGA UT183 FOUCO UN460 SIVIR 46N010W 45N020W 44N030W 42N040W 41N050W 39N060W SELIM M203 HOBEE AR6 HIBAC CWRLD4
File this flight plan on PilotEdge
Remarks:
Altitude:
(Current/Filed)
32,000ft
Speed:
(Current/Filed)
455kts
Departed: 27-May-17 03:47 AM
Arrived: 27-May-17 01:53 PM
Distance/Time
Traveled:
4189nm/10:06
Distance/Time
To Go:
Arrived

Flight Plot

Page will automatically refresh every two minutes.

Flight plan parsing failed; only flown route is shown


Map Options




Map Legend


Flown Route
Filed Route
Departure Airport
Arrival Airport
Navaid (VOR, NDB)
Fix

Horizontal Profiles

Position Reports

Time Latitude Longitude Heading Altitude Ground
Speed
27-May-17 02:57 43.658821 7.206833 314 25ft 0kts
27-May-17 02:58 43.658821 7.206833 314 25ft 0kts
27-May-17 03:05 43.664364 7.214474 317 25ft 0kts
27-May-17 03:06 43.664364 7.214474 317 25ft 0kts
27-May-17 03:07 43.664364 7.214474 317 25ft 0kts
27-May-17 03:08 43.664364 7.214474 317 25ft 0kts
27-May-17 03:09 43.664364 7.214474 317 25ft 0kts
27-May-17 03:17 43.664372 7.214457 317 25ft 0kts
27-May-17 03:18 43.664372 7.214457 317 25ft 0kts
27-May-17 03:19 43.664372 7.214457 317 25ft 0kts
27-May-17 03:20 43.664372 7.214457 317 25ft 0kts
27-May-17 03:21 43.664372 7.214457 317 25ft 0kts
27-May-17 03:22 43.664372 7.214457 317 25ft 0kts
27-May-17 03:23 43.664372 7.214457 317 24ft 0kts
27-May-17 03:24 43.664372 7.214457 317 24ft 0kts
27-May-17 03:25 43.664372 7.214457 317 24ft 0kts
27-May-17 03:26 43.664372 7.214457 317 24ft 0kts
27-May-17 03:27 43.664372 7.214457 317 24ft 0kts
27-May-17 03:28 43.664372 7.214457 317 24ft 0kts
27-May-17 03:29 43.664372 7.214457 317 24ft 0kts
27-May-17 03:30 43.664372 7.214457 317 24ft 0kts
27-May-17 03:31 43.664372 7.214457 317 24ft 0kts
27-May-17 03:32 43.664372 7.214457 317 24ft 0kts
27-May-17 03:33 43.664372 7.214457 317 24ft 0kts
27-May-17 03:34 43.664060 7.214846 291 25ft 0kts
27-May-17 03:35 43.664297 7.215407 211 24ft 0kts
27-May-17 03:36 43.664297 7.215407 211 24ft 0kts
27-May-17 03:37 43.663623 7.215579 137 24ft 8kts
27-May-17 03:38 43.660644 7.213031 223 24ft 19kts
27-May-17 03:39 43.658815 7.210490 225 24ft 0kts
27-May-17 03:40 43.658737 7.210380 225 24ft 0kts
27-May-17 03:41 43.657300 7.208925 188 24ft 12kts
27-May-17 03:42 43.653390 7.209367 215 25ft 9kts
27-May-17 03:43 43.652529 7.208217 224 24ft 0kts
27-May-17 03:44 43.652373 7.208006 223 24ft 4kts
27-May-17 03:45 43.649754 7.204443 225 24ft 12kts
27-May-17 03:46 43.647725 7.201915 192 24ft 0kts
27-May-17 03:47 43.647344 7.201960 152 24ft 8kts
27-May-17 03:48 43.646972 7.202708 67 24ft 0kts
27-May-17 03:49 43.650526 7.207693 45 25ft 74kts
27-May-17 03:50 43.676777 7.246453 67 725ft 167kts
27-May-17 03:51 43.656479 7.276688 223 2061ft 155kts
27-May-17 03:52 43.669315 7.218906 305 2638ft 192kts
27-May-17 03:53 43.706857 7.153970 311 3205ft 259kts
27-May-17 03:54 43.757198 7.075412 312 5336ft 277kts
27-May-17 03:55 43.809176 6.995424 313 7478ft 293kts
27-May-17 03:56 43.863869 6.911679 313 9684ft 301kts
27-May-17 03:57 43.922270 6.822052 313 11066ft 337kts
27-May-17 03:58 43.989048 6.719075 313 12095ft 386kts
27-May-17 03:59 44.063424 6.604303 310 13954ft 406kts
27-May-17 04:00 44.129992 6.500775 309 16460ft 396kts
27-May-17 04:01 44.195040 6.398729 312 18541ft 394kts
27-May-17 04:02 44.256266 6.295471 309 20011ft 404kts
27-May-17 04:03 44.323584 6.178950 309 21620ft 411kts
27-May-17 04:04 44.395177 6.054453 309 23115ft 419kts
27-May-17 04:05 44.463639 5.934896 309 24434ft 426kts
27-May-17 04:06 44.535245 5.809578 309 25487ft 438kts
27-May-17 04:07 44.609679 5.678147 309 26774ft 442kts
27-May-17 04:08 44.680779 5.552094 309 27762ft 448kts
27-May-17 04:09 44.757819 5.414862 309 28721ft 454kts
27-May-17 04:10 44.819686 5.304090 308 29539ft 457kts
27-May-17 04:11 44.880333 5.195094 308 30498ft 454kts
27-May-17 04:12 44.969594 5.034016 308 31662ft 453kts
27-May-17 04:13 45.044257 4.898426 308 32202ft 446kts
27-May-17 04:14 45.108064 4.782369 308 32185ft 455kts
27-May-17 04:15 45.148795 4.708709 309 32184ft 451kts
27-May-17 04:16 45.195724 4.528192 280 32033ft 463kts
27-May-17 04:17 45.208368 4.383226 279 32142ft 461kts
27-May-17 04:18 45.221750 4.215168 278 32128ft 460kts
27-May-17 04:19 45.235454 4.039606 278 32131ft 460kts
27-May-17 04:20 45.246762 3.893302 275 32130ft 453kts
27-May-17 04:21 45.267996 3.689132 282 32126ft 455kts
27-May-17 04:22 45.291390 3.546185 282 32101ft 456kts
27-May-17 04:23 45.319048 3.378427 282 32103ft 456kts
27-May-17 04:24 45.337793 3.263757 282 32106ft 455kts
27-May-17 04:25 45.364631 3.098424 282 32103ft 455kts
27-May-17 04:26 45.391901 2.928740 282 32103ft 455kts
27-May-17 04:27 45.418594 2.760977 282 32104ft 455kts
27-May-17 04:28 45.446044 2.586606 282 32103ft 455kts
27-May-17 04:29 45.472736 2.415265 282 32103ft 455kts
27-May-17 04:30 45.493871 2.278172 281 32103ft 455kts
27-May-17 04:31 45.519749 2.108851 281 32103ft 455kts
27-May-17 04:32 45.545635 1.937691 281 32125ft 454kts
27-May-17 04:33 45.571185 1.766869 281 32131ft 454kts
27-May-17 04:34 45.596994 1.592419 281 32129ft 454kts
27-May-17 04:35 45.622626 1.417194 281 32130ft 454kts
27-May-17 04:36 45.645294 1.260427 280 32131ft 454kts
27-May-17 04:37 45.670358 1.085318 280 32130ft 454kts
27-May-17 04:38 45.695247 0.909402 280 32129ft 453kts
27-May-17 04:39 45.719793 0.733853 280 32130ft 453kts
27-May-17 04:40 45.743993 0.558730 280 32098ft 454kts
27-May-17 04:41 45.742371 0.382328 262 32086ft 452kts
27-May-17 04:42 45.726049 0.237517 260 32077ft 452kts
27-May-17 04:43 45.705298 0.063332 260 32078ft 452kts
27-May-17 04:44 45.684009 -0.112455 260 32076ft 451kts
27-May-17 04:45 45.662731 -0.287027 262 32074ft 451kts
27-May-17 04:46 45.671339 -0.462365 276 32049ft 456kts
27-May-17 04:47 45.684668 -0.639426 276 32046ft 455kts
27-May-17 04:48 45.695628 -0.786727 275 32049ft 454kts
27-May-17 04:49 45.708356 -0.960877 275 32049ft 454kts
27-May-17 04:50 45.721075 -1.138743 275 32050ft 454kts
27-May-17 04:51 45.733574 -1.317505 275 32049ft 454kts
27-May-17 04:52 45.745846 -1.495553 275 32042ft 439kts
27-May-17 04:53 45.756095 -1.650374 274 32052ft 433kts
27-May-17 04:54 45.766688 -1.812373 274 32049ft 430kts
27-May-17 04:55 45.777588 -1.982756 274 32050ft 431kts
27-May-17 04:56 45.788227 -2.153065 274 32049ft 431kts
27-May-17 04:57 45.798519 -2.323362 274 32053ft 428kts
27-May-17 04:58 45.808726 -2.493594 274 32045ft 432kts
27-May-17 04:59 45.816453 -2.649876 273 32050ft 431kts
27-May-17 05:00 45.822980 -2.794031 272 32049ft 431kts
27-May-17 05:01 45.830521 -2.964212 273 32049ft 431kts
27-May-17 05:02 45.840116 -3.134560 273 32049ft 431kts
27-May-17 05:03 45.849482 -3.305518 273 32048ft 431kts
27-May-17 05:04 45.858565 -3.475923 273 32049ft 431kts
27-May-17 05:05 45.867362 -3.645717 273 32083ft 431kts
27-May-17 05:06 45.875150 -3.800414 273 32072ft 431kts
27-May-17 05:07 45.883520 -3.971408 273 32078ft 431kts
27-May-17 05:08 45.891593 -4.141560 273 32094ft 431kts
27-May-17 05:09 45.899428 -4.312153 273 32103ft 431kts
27-May-17 05:10 45.907039 -4.483457 273 32106ft 431kts
27-May-17 05:11 45.914353 -4.653827 272 32102ft 431kts
27-May-17 05:12 45.921433 -4.824760 272 32103ft 431kts
27-May-17 05:13 45.928285 -4.996340 272 32104ft 431kts
27-May-17 05:14 45.934814 -5.166456 272 32093ft 431kts
27-May-17 05:15 45.940823 -5.336488 272 32108ft 432kts
27-May-17 05:16 45.946514 -5.508287 272 32104ft 431kts
27-May-17 05:17 45.951906 -5.679229 271 32104ft 431kts
27-May-17 05:18 45.957073 -5.850773 271 32103ft 431kts
27-May-17 05:19 45.961966 -6.021950 271 32103ft 431kts
27-May-17 05:20 45.966618 -6.193723 271 32104ft 431kts
27-May-17 05:21 45.970996 -6.364745 271 32100ft 431kts
27-May-17 05:22 45.975099 -6.535523 271 31986ft 430kts
27-May-17 05:23 45.978969 -6.707081 271 31996ft 430kts
27-May-17 05:24 45.982607 -6.878884 271 31999ft 430kts
27-May-17 05:25 45.985961 -7.050030 271 31994ft 430kts
27-May-17 05:26 45.989064 -7.221521 271 31994ft 430kts
27-May-17 05:27 45.991868 -7.393104 271 32006ft 428kts
27-May-17 05:28 45.994504 -7.564808 271 31991ft 430kts
27-May-17 05:29 45.996828 -7.736097 270 31994ft 430kts
27-May-17 05:30 45.998907 -7.907041 270 31997ft 430kts
27-May-17 05:31 46.000127 -8.078111 269 31996ft 430kts
27-May-17 05:32 46.000470 -8.250147 269 31994ft 430kts
27-May-17 05:33 46.000524 -8.421261 269 31995ft 430kts
27-May-17 05:34 46.000328 -8.593264 270 31994ft 430kts
27-May-17 05:35 45.999978 -8.762130 269 31995ft 430kts
27-May-17 05:36 46.000780 -8.933722 270 31996ft 430kts
27-May-17 05:37 46.001312 -9.105524 270 31996ft 430kts
27-May-17 05:38 46.001586 -9.276838 270 31994ft 430kts
27-May-17 05:39 46.001604 -9.448611 270 31995ft 429kts
27-May-17 05:40 46.001358 -9.619708 270 31995ft 429kts
27-May-17 05:41 46.000872 -9.791276 269 31995ft 429kts
27-May-17 05:42 46.000122 -9.963027 269 31995ft 429kts
27-May-17 05:43 45.992482 -10.133347 265 31994ft 429kts
27-May-17 05:44 45.982801 -10.303676 265 31995ft 429kts
27-May-17 05:45 45.972839 -10.474155 265 31994ft 429kts
27-May-17 05:46 45.962610 -10.644807 265 31993ft 429kts
27-May-17 05:47 45.952158 -10.814998 265 31996ft 428kts
27-May-17 05:48 45.941421 -10.985507 265 31996ft 428kts
27-May-17 05:49 45.930445 -11.155620 265 31995ft 428kts
27-May-17 05:50 45.919246 -11.325335 265 31994ft 428kts
27-May-17 05:51 45.907769 -11.495355 265 31995ft 428kts
27-May-17 05:52 45.896048 -11.665142 264 31996ft 428kts
27-May-17 05:53 45.884078 -11.835009 264 31995ft 428kts
27-May-17 05:54 45.871854 -12.004696 264 31995ft 428kts
27-May-17 05:55 45.859411 -12.173879 264 31996ft 427kts
27-May-17 05:56 45.846690 -12.343307 264 31994ft 427kts
27-May-17 05:57 45.833750 -12.512340 264 31993ft 427kts
27-May-17 05:58 45.820565 -12.681113 264 31998ft 427kts
27-May-17 05:59 45.807113 -12.850218 264 31996ft 427kts
27-May-17 06:00 45.793476 -13.018476 264 31994ft 427kts
27-May-17 06:01 45.779547 -13.187079 264 31995ft 427kts
27-May-17 06:02 45.765336 -13.355917 264 31995ft 427kts
27-May-17 06:03 45.750949 -13.523930 264 31994ft 426kts
27-May-17 06:04 45.736298 -13.692002 263 31997ft 426kts
27-May-17 06:05 45.721436 -13.859799 263 31997ft 426kts
27-May-17 06:06 45.706284 -14.027876 263 31995ft 426kts
27-May-17 06:07 45.690911 -14.195509 264 31994ft 426kts
27-May-17 06:08 45.675310 -14.362908 264 31995ft 426kts
27-May-17 06:09 45.659427 -14.530614 264 31994ft 425kts
27-May-17 06:10 45.643301 -14.698094 263 31997ft 426kts
27-May-17 06:11 45.626972 -14.865319 263 31996ft 425kts
27-May-17 06:12 45.610436 -15.031945 263 31995ft 425kts
27-May-17 06:13 45.593579 -15.199117 263 31995ft 425kts
27-May-17 06:14 45.576525 -15.365820 263 31995ft 425kts
27-May-17 06:15 45.559349 -15.531368 263 31995ft 425kts
27-May-17 06:16 45.541774 -15.698240 263 31995ft 425kts
27-May-17 06:17 45.524024 -15.864476 263 31997ft 425kts
27-May-17 06:18 45.505965 -16.031132 263 31996ft 425kts
27-May-17 06:19 45.487726 -16.197103 263 31994ft 425kts
27-May-17 06:20 45.469209 -16.363282 263 31994ft 425kts
27-May-17 06:21 45.450495 -16.529035 263 31994ft 425kts
27-May-17 06:22 45.431531 -16.694651 262 31996ft 425kts
27-May-17 06:23 45.412361 -16.860141 262 31997ft 424kts
27-May-17 06:24 45.392934 -17.025402 262 31995ft 425kts
27-May-17 06:25 45.373276 -17.190645 262 31994ft 424kts
27-May-17 06:26 45.353318 -17.356217 262 31995ft 424kts
27-May-17 06:27 45.333211 -17.520910 262 31995ft 424kts
27-May-17 06:28 45.312822 -17.685834 262 31997ft 424kts
27-May-17 06:29 45.292243 -17.850425 262 31995ft 424kts
27-May-17 06:30 45.271408 -18.014966 262 31995ft 424kts
27-May-17 06:31 45.250369 -18.179050 262 31995ft 424kts
27-May-17 06:32 45.229038 -18.343543 262 31994ft 424kts
27-May-17 06:33 45.207627 -18.506606 262 31993ft 408kts
27-May-17 06:34 45.186742 -18.663978 261 31991ft 415kts
27-May-17 06:35 45.165334 -18.823638 262 31996ft 414kts
27-May-17 06:36 45.143678 -18.983244 262 31997ft 413kts
27-May-17 06:37 45.121787 -19.142795 262 31995ft 413kts
27-May-17 06:38 45.099741 -19.301760 262 31991ft 414kts
27-May-17 06:39 45.077386 -19.461183 262 31996ft 413kts
27-May-17 06:40 45.054851 -19.620222 262 31996ft 413kts
27-May-17 06:41 45.032087 -19.779229 261 31995ft 413kts
27-May-17 06:42 45.009092 -19.938181 261 31995ft 414kts
27-May-17 06:43 44.994787 -20.097495 267 31895ft 411kts
27-May-17 06:44 44.985584 -20.258070 267 31882ft 411kts
27-May-17 06:45 44.976281 -20.418271 267 31886ft 411kts
27-May-17 06:46 44.966726 -20.579110 268 31888ft 411kts
27-May-17 06:47 44.956963 -20.739392 267 31890ft 411kts
27-May-17 06:48 44.946936 -20.900436 267 31888ft 411kts
27-May-17 06:49 44.936740 -21.060484 267 31887ft 411kts
27-May-17 06:50 44.926290 -21.220890 267 31887ft 411kts
27-May-17 06:51 44.915594 -21.381557 268 31887ft 411kts
27-May-17 06:52 44.904701 -21.541860 267 31884ft 412kts
27-May-17 06:53 44.893453 -21.701710 267 31885ft 412kts
27-May-17 06:54 44.882074 -21.862117 267 31889ft 411kts
27-May-17 06:55 44.870468 -22.022769 267 31888ft 411kts
27-May-17 06:56 44.858665 -22.182905 267 31886ft 411kts
27-May-17 06:57 44.846698 -22.342447 267 31889ft 412kts
27-May-17 06:58 44.834421 -22.502577 267 31886ft 411kts
27-May-17 06:59 44.821934 -22.662645 266 31886ft 412kts
27-May-17 07:00 44.809258 -22.822375 266 31886ft 412kts
27-May-17 07:01 44.796314 -22.982512 266 31888ft 412kts
27-May-17 07:02 44.783177 -23.142127 266 31886ft 412kts
27-May-17 07:03 44.769775 -23.301931 269 31888ft 412kts
27-May-17 07:04 44.756203 -23.461735 266 31887ft 412kts
27-May-17 07:05 44.742341 -23.621797 266 31884ft 412kts
27-May-17 07:06 44.728324 -23.781105 266 31887ft 412kts
27-May-17 07:07 44.714042 -23.940809 266 31886ft 412kts
27-May-17 07:08 44.699523 -24.100404 266 31887ft 413kts
27-May-17 07:09 44.684822 -24.260249 266 31889ft 412kts
27-May-17 07:10 44.669842 -24.419554 266 31887ft 412kts
27-May-17 07:11 44.654642 -24.579189 266 31885ft 412kts
27-May-17 07:12 44.639294 -24.737996 265 31889ft 413kts
27-May-17 07:13 44.623643 -24.897646 265 31888ft 412kts
27-May-17 07:14 44.607804 -25.056734 265 31887ft 413kts
27-May-17 07:15 44.591733 -25.215929 265 31886ft 413kts
27-May-17 07:16 44.575437 -25.375041 265 31886ft 413kts
27-May-17 07:17 44.559119 -25.533076 265 31920ft 413kts
27-May-17 07:18 44.542266 -25.692122 265 31915ft 413kts
27-May-17 07:19 44.525300 -25.851197 265 31914ft 413kts
27-May-17 07:20 44.508104 -26.010060 265 31915ft 413kts
27-May-17 07:21 44.493592 -26.142499 265 31914ft 413kts
27-May-17 07:22 44.473104 -26.327208 265 31914ft 413kts
27-May-17 07:23 44.455249 -26.485842 265 31913ft 413kts
27-May-17 07:24 44.437112 -26.644931 265 31912ft 413kts
27-May-17 07:25 44.418847 -26.803152 264 31916ft 413kts
27-May-17 07:26 44.403439 -26.935644 264 31917ft 413kts
27-May-17 07:27 44.381568 -27.120061 264 31913ft 413kts
27-May-17 07:28 44.362197 -27.281444 267 31913ft 430kts
27-May-17 07:29 44.345698 -27.417724 267 31911ft 426kts
27-May-17 07:30 44.325733 -27.580613 267 31912ft 427kts
27-May-17 07:31 44.305542 -27.743952 266 31918ft 428kts
27-May-17 07:32 44.284986 -27.907033 266 31914ft 428kts
27-May-17 07:33 44.264218 -28.070377 266 31913ft 428kts
27-May-17 07:34 44.243224 -28.233563 266 31914ft 428kts
27-May-17 07:35 44.222049 -28.396250 266 31915ft 428kts
27-May-17 07:36 44.200628 -28.558930 266 31914ft 428kts
27-May-17 07:37 44.179115 -28.720442 265 31914ft 429kts
27-May-17 07:38 44.157212 -28.883113 265 31915ft 428kts
27-May-17 07:39 44.135019 -29.046034 265 31916ft 428kts
27-May-17 07:40 44.112697 -29.208100 265 31915ft 428kts
27-May-17 07:41 44.090005 -29.371048 265 31914ft 428kts
27-May-17 07:42 44.067200 -29.533027 265 31914ft 429kts
27-May-17 07:43 44.044196 -29.694676 265 31967ft 430kts
27-May-17 07:44 44.020785 -29.857475 265 31965ft 429kts
27-May-17 07:45 43.997204 -30.018981 264 31972ft 429kts
27-May-17 07:46 43.972744 -30.180256 264 31970ft 429kts
27-May-17 07:47 43.947977 -30.341860 264 31968ft 428kts
27-May-17 07:48 43.922945 -30.503514 264 31968ft 429kts
27-May-17 07:49 43.897672 -30.665114 263 31967ft 429kts
27-May-17 07:50 43.872097 -30.826185 263 31969ft 429kts
27-May-17 07:51 43.846346 -30.987656 263 31967ft 430kts
27-May-17 07:52 43.820394 -31.148846 263 31967ft 430kts
27-May-17 07:53 43.794144 -31.310339 263 31967ft 430kts
27-May-17 07:54 43.767781 -31.470998 263 31966ft 430kts
27-May-17 07:55 43.741103 -31.632045 263 31966ft 430kts
27-May-17 07:56 43.714185 -31.793114 263 31969ft 430kts
27-May-17 07:57 43.687065 -31.953845 263 31967ft 430kts
27-May-17 07:58 43.659695 -32.114554 263 31967ft 430kts
27-May-17 07:59 43.632140 -32.274884 263 31967ft 430kts
27-May-17 08:00 43.604337 -32.435206 263 31967ft 430kts
27-May-17 08:01 43.576314 -32.595371 263 31967ft 430kts
27-May-17 08:02 43.548021 -32.755699 262 31968ft 431kts
27-May-17 08:03 43.519498 -32.915861 262 31969ft 431kts
27-May-17 08:04 43.490790 -33.075679 262 31969ft 430kts
27-May-17 08:05 43.461903 -33.235044 262 31967ft 431kts
27-May-17 08:06 43.432728 -33.394647 262 31967ft 431kts
27-May-17 08:07 43.403344 -33.554032 262 31967ft 431kts
27-May-17 08:08 43.373661 -33.713699 261 31968ft 432kts
27-May-17 08:09 43.343793 -33.873053 261 31969ft 432kts
27-May-17 08:10 43.313600 -34.032734 261 31970ft 432kts
27-May-17 08:11 43.283283 -34.191790 261 31968ft 431kts
27-May-17 08:12 43.252804 -34.350326 261 31968ft 431kts
27-May-17 08:13 43.222046 -34.509025 261 31968ft 431kts
27-May-17 08:14 43.191058 -34.667613 260 31969ft 432kts
27-May-17 08:15 43.159905 -34.825862 261 31968ft 435kts
27-May-17 08:16 43.128272 -34.985175 261 31969ft 434kts
27-May-17 08:17 43.096441 -35.144216 260 31969ft 434kts
27-May-17 08:18 43.064407 -35.303006 260 31969ft 434kts
27-May-17 08:19 43.032128 -35.461758 260 31968ft 434kts
27-May-17 08:20 42.999586 -35.620561 260 31969ft 434kts
27-May-17 08:21 42.966882 -35.778964 260 31969ft 435kts
27-May-17 08:22 42.933868 -35.937610 260 31969ft 435kts
27-May-17 08:23 42.900668 -36.095901 260 31970ft 435kts
27-May-17 08:24 42.867085 -36.254111 260 31966ft 435kts
27-May-17 08:25 42.833498 -36.411789 260 31965ft 435kts
27-May-17 08:26 42.799565 -36.569940 260 31966ft 435kts
27-May-17 08:27 42.765494 -36.727622 259 31969ft 436kts
27-May-17 08:28 42.731144 -36.885394 259 31968ft 436kts
27-May-17 08:29 42.696565 -37.043007 259 31968ft 435kts
27-May-17 08:30 42.661868 -37.199995 259 31968ft 435kts
27-May-17 08:31 42.626918 -37.356997 259 31967ft 435kts
27-May-17 08:32 42.591680 -37.514138 259 31967ft 435kts
27-May-17 08:33 42.556281 -37.670859 258 31969ft 436kts
27-May-17 08:34 42.520635 -37.827658 258 31968ft 436kts
27-May-17 08:35 42.484762 -37.984248 258 31968ft 436kts
27-May-17 08:36 42.448618 -38.140905 258 31968ft 436kts
27-May-17 08:37 42.412382 -38.296854 258 31968ft 436kts
27-May-17 08:38 42.375855 -38.452965 258 31967ft 436kts
27-May-17 08:39 42.339064 -38.609120 258 31967ft 436kts
27-May-17 08:40 42.302489 -38.763367 258 31968ft 437kts
27-May-17 08:41 42.265239 -38.919336 258 31970ft 437kts
27-May-17 08:42 42.227786 -39.075064 258 31969ft 437kts
27-May-17 08:43 42.190203 -39.230286 257 31968ft 436kts
27-May-17 08:44 42.152387 -39.385404 257 31968ft 437kts
27-May-17 08:45 42.114275 -39.540705 257 31968ft 437kts
27-May-17 08:46 42.076011 -39.695594 257 31970ft 437kts
27-May-17 08:47 42.037644 -39.849937 257 31970ft 437kts
27-May-17 08:48 42.000274 -40.004770 265 31959ft 430kts
27-May-17 08:49 41.990970 -40.163556 270 31974ft 427kts
27-May-17 08:50 41.981748 -40.322523 270 31971ft 427kts
27-May-17 08:51 41.972367 -40.481507 270 31967ft 427kts
27-May-17 08:52 41.962765 -40.640540 270 31967ft 427kts
27-May-17 08:53 41.953144 -40.800234 264 31971ft 432kts
27-May-17 08:54 41.942773 -40.960649 264 31970ft 432kts
27-May-17 08:55 41.932476 -41.120423 265 31988ft 431kts
27-May-17 08:56 41.921911 -41.279927 264 31998ft 430kts
27-May-17 08:57 41.911151 -41.439497 264 31995ft 429kts
27-May-17 08:58 41.900176 -41.598958 264 31993ft 430kts
27-May-17 08:59 41.888857 -41.758121 264 31995ft 429kts
27-May-17 09:00 41.877438 -41.917349 264 31996ft 430kts
27-May-17 09:01 41.865819 -42.076482 264 31996ft 430kts
27-May-17 09:02 41.853988 -42.235955 264 31993ft 430kts
27-May-17 09:03 41.841873 -42.394987 264 31994ft 430kts
27-May-17 09:04 41.829582 -42.554127 264 31994ft 430kts
27-May-17 09:05 41.817059 -42.713270 263 31995ft 430kts
27-May-17 09:06 41.804337 -42.872184 263 31995ft 430kts
27-May-17 09:07 41.791416 -43.030810 263 31995ft 430kts
27-May-17 09:08 41.778209 -43.190099 263 31996ft 430kts
27-May-17 09:09 41.764840 -43.348995 264 31993ft 430kts
27-May-17 09:10 41.751230 -43.507379 263 31994ft 430kts
27-May-17 09:11 41.737407 -43.665951 263 31997ft 430kts
27-May-17 09:12 41.723327 -43.824996 263 31995ft 430kts
27-May-17 09:13 41.709087 -43.983349 263 31996ft 430kts
27-May-17 09:14 41.694620 -44.141637 263 31996ft 430kts
27-May-17 09:15 41.679920 -44.300011 263 31995ft 430kts
27-May-17 09:16 41.665000 -44.458771 263 31996ft 429kts
27-May-17 09:17 41.649851 -44.616753 263 31994ft 430kts
27-May-17 09:18 41.634500 -44.775028 262 31995ft 430kts
27-May-17 09:19 41.618916 -44.933300 262 31995ft 430kts
27-May-17 09:20 41.603128 -45.091352 262 31995ft 430kts
27-May-17 09:21 41.587139 -45.249152 262 31995ft 430kts
27-May-17 09:22 41.570877 -45.407451 262 31994ft 430kts
27-May-17 09:23 41.554497 -45.565143 262 31995ft 430kts
27-May-17 09:24 41.537661 -45.723298 264 31984ft 434kts
27-May-17 09:25 41.520116 -45.887848 265 31997ft 456kts
27-May-17 09:26 41.502164 -46.053712 265 31996ft 453kts
27-May-17 09:27 41.483861 -46.220012 265 31995ft 453kts
27-May-17 09:28 41.465360 -46.385910 265 31995ft 453kts
27-May-17 09:29 41.446679 -46.551203 265 31995ft 453kts
27-May-17 09:30 41.427760 -46.716527 264 32006ft 457kts
27-May-17 09:31 41.408568 -46.881935 264 31995ft 453kts
27-May-17 09:32 41.389111 -47.047488 264 31994ft 453kts
27-May-17 09:33 41.369434 -47.212829 264 31996ft 452kts
27-May-17 09:34 41.349477 -47.378397 264 31996ft 453kts
27-May-17 09:35 41.329377 -47.543116 264 31995ft 453kts
27-May-17 09:36 41.309007 -47.708023 264 31995ft 453kts
27-May-17 09:37 41.288404 -47.872905 264 32000ft 455kts
27-May-17 09:38 41.267579 -48.037441 264 31992ft 453kts
27-May-17 09:39 41.246489 -48.202140 264 31995ft 453kts
27-May-17 09:40 41.225122 -48.367073 264 31996ft 452kts
27-May-17 09:41 41.203625 -48.531113 264 31996ft 452kts
27-May-17 09:42 41.182067 -48.693715 263 31996ft 453kts
27-May-17 09:43 41.160064 -48.857891 263 31996ft 452kts
27-May-17 09:44 41.137846 -49.021810 263 31988ft 454kts
27-May-17 09:45 41.115407 -49.185485 263 31996ft 453kts
27-May-17 09:46 41.092724 -49.349140 263 31997ft 452kts
27-May-17 09:47 41.069785 -49.512867 263 31996ft 452kts
27-May-17 09:48 41.046637 -49.676310 263 31997ft 453kts
27-May-17 09:49 41.023219 -49.840009 263 31995ft 452kts
27-May-17 09:50 40.999555 -50.003196 262 31996ft 453kts
27-May-17 09:51 40.974717 -50.166193 262 31995ft 455kts
27-May-17 09:52 40.949633 -50.328891 262 32000ft 453kts
27-May-17 09:53 40.924318 -50.491490 262 31995ft 453kts
27-May-17 09:54 40.899001 -50.652557 261 31994ft 452kts
27-May-17 09:55 40.873064 -50.815118 261 31996ft 453kts
27-May-17 09:56 40.846974 -50.977890 261 31995ft 453kts
27-May-17 09:57 40.820781 -51.139871 262 31997ft 449kts
27-May-17 09:58 40.794224 -51.302369 261 32001ft 452kts
27-May-17 09:59 40.767581 -51.464029 261 31994ft 453kts
27-May-17 10:00 40.740649 -51.625894 261 31993ft 453kts
27-May-17 10:01 40.713464 -51.787896 261 31995ft 453kts
27-May-17 10:02 40.686016 -51.949899 261 31995ft 453kts
27-May-17 10:03 40.658362 -52.111633 261 31995ft 453kts
27-May-17 10:04 40.630482 -52.273250 261 31995ft 453kts
27-May-17 10:05 40.602466 -52.434207 261 31995ft 453kts
27-May-17 10:06 40.574193 -52.595204 261 31995ft 453kts
27-May-17 10:07 40.545685 -52.756238 260 31995ft 453kts
27-May-17 10:08 40.516938 -52.917148 260 31996ft 453kts
27-May-17 10:09 40.487958 -53.077963 260 31995ft 453kts
27-May-17 10:10 40.458875 -53.237990 260 31937ft 454kts
27-May-17 10:11 40.429397 -53.398803 260 31717ft 454kts
27-May-17 10:12 40.399659 -53.559686 260 31723ft 454kts
27-May-17 10:13 40.369700 -53.720486 259 31727ft 455kts
27-May-17 10:14 40.339475 -53.881347 259 31725ft 455kts
27-May-17 10:15 40.309045 -54.041935 259 31725ft 455kts
27-May-17 10:16 40.278414 -54.202248 259 31725ft 455kts
27-May-17 10:17 40.247494 -54.362799 259 31725ft 455kts
27-May-17 10:18 40.216343 -54.523019 260 31725ft 455kts
27-May-17 10:19 40.185113 -54.682782 260 31728ft 455kts
27-May-17 10:20 40.153523 -54.843028 260 31726ft 455kts
27-May-17 10:21 40.121782 -55.002665 260 31725ft 455kts
27-May-17 10:22 40.089801 -55.162258 260 31725ft 455kts
27-May-17 10:23 40.057573 -55.321841 260 31725ft 455kts
27-May-17 10:24 40.025139 -55.481207 260 31726ft 455kts
27-May-17 10:25 39.997974 -55.613758 260 31726ft 455kts
27-May-17 10:26 39.959593 -55.799669 259 31726ft 455kts
27-May-17 10:27 39.926445 -55.958871 259 31726ft 456kts
27-May-17 10:28 39.893110 -56.117597 259 31723ft 456kts
27-May-17 10:29 39.864988 -56.250238 259 31725ft 456kts
27-May-17 10:30 39.825645 -56.435090 259 31724ft 456kts
27-May-17 10:31 39.797306 -56.567282 259 31724ft 456kts
27-May-17 10:32 39.757402 -56.752167 258 31724ft 457kts
27-May-17 10:33 39.728662 -56.884292 258 31725ft 457kts
27-May-17 10:34 39.688143 -57.069242 258 31725ft 457kts
27-May-17 10:35 39.659002 -57.201286 258 31724ft 457kts
27-May-17 10:36 39.623841 -57.359574 258 31725ft 457kts
27-May-17 10:37 39.588601 -57.517096 258 31724ft 457kts
27-May-17 10:38 39.552930 -57.675428 258 31726ft 457kts
27-May-17 10:39 39.517161 -57.833180 258 31726ft 457kts
27-May-17 10:40 39.481430 -57.990595 256 31729ft 449kts
27-May-17 10:41 39.446691 -58.140835 255 31728ft 440kts
27-May-17 10:42 39.411715 -58.291678 255 31724ft 438kts
27-May-17 10:43 39.376624 -58.442254 255 31724ft 437kts
27-May-17 10:44 39.341381 -58.592462 255 31724ft 438kts
27-May-17 10:45 39.306359 -58.740892 254 31726ft 438kts
27-May-17 10:46 39.270603 -58.891407 253 31724ft 438kts
27-May-17 10:47 39.234829 -59.041002 254 31727ft 437kts
27-May-17 10:48 39.198704 -59.191084 254 31726ft 438kts
27-May-17 10:49 39.162424 -59.340875 254 31724ft 438kts
27-May-17 10:50 39.126011 -59.490270 254 31724ft 438kts
27-May-17 10:51 39.089364 -59.639687 254 31724ft 438kts
27-May-17 10:52 39.052491 -59.789208 253 31727ft 438kts
27-May-17 10:53 39.015546 -59.937992 253 31725ft 438kts
27-May-17 10:54 38.984601 -60.088948 257 31729ft 437kts
27-May-17 10:55 38.957285 -60.243452 257 31726ft 441kts
27-May-17 10:56 38.930006 -60.396867 257 31723ft 443kts
27-May-17 10:57 38.902405 -60.550920 257 31723ft 443kts
27-May-17 10:58 38.874494 -60.704703 257 31725ft 443kts
27-May-17 10:59 38.846551 -60.858219 257 31726ft 443kts
27-May-17 11:00 38.818522 -61.011099 257 31724ft 443kts
27-May-17 11:01 38.790104 -61.164563 257 31724ft 443kts
27-May-17 11:02 38.761522 -61.317883 257 31725ft 443kts
27-May-17 11:03 38.732757 -61.470985 257 31725ft 443kts
27-May-17 11:04 38.703769 -61.624080 257 31724ft 443kts
27-May-17 11:05 38.674594 -61.777119 256 31726ft 443kts
27-May-17 11:06 38.645277 -61.929630 256 31725ft 443kts
27-May-17 11:07 38.615747 -62.082175 256 31724ft 443kts
27-May-17 11:08 38.585986 -62.234539 256 31724ft 443kts
27-May-17 11:09 38.555929 -62.387405 256 31725ft 443kts
27-May-17 11:10 38.525861 -62.539194 256 31724ft 443kts
27-May-17 11:11 38.488665 -62.686852 239 31949ft 445kts
27-May-17 11:12 38.422703 -62.820932 238 31998ft 444kts
27-May-17 11:13 38.355648 -62.952678 238 31995ft 445kts
27-May-17 11:14 38.288131 -63.084659 238 31995ft 445kts
27-May-17 11:15 38.220354 -63.216357 238 31995ft 445kts
27-May-17 11:16 38.152682 -63.347456 238 31995ft 445kts
27-May-17 11:17 38.084629 -63.478755 238 31994ft 445kts
27-May-17 11:18 38.016580 -63.609525 238 31994ft 445kts
27-May-17 11:19 37.948710 -63.739553 238 32088ft 447kts
27-May-17 11:20 37.880147 -63.870149 238 32077ft 448kts
27-May-17 11:21 37.811253 -64.000828 237 32074ft 447kts
27-May-17 11:22 37.742224 -64.131378 238 32076ft 447kts
27-May-17 11:23 37.673295 -64.261244 238 32077ft 447kts
27-May-17 11:24 37.603960 -64.391361 238 32076ft 447kts
27-May-17 11:25 37.534570 -64.521069 238 32075ft 447kts
27-May-17 11:26 37.464970 -64.650668 237 32075ft 447kts
27-May-17 11:27 37.395339 -64.779945 237 32077ft 447kts
27-May-17 11:28 37.325577 -64.908845 237 32076ft 447kts
27-May-17 11:29 37.255615 -65.037529 237 32077ft 447kts
27-May-17 11:30 37.185648 -65.165888 237 32076ft 447kts
27-May-17 11:31 37.115495 -65.294017 237 32075ft 447kts
27-May-17 11:32 37.045061 -65.422173 237 32075ft 447kts
27-May-17 11:33 36.974679 -65.549745 237 32076ft 447kts
27-May-17 11:34 36.904064 -65.677283 237 32078ft 448kts
27-May-17 11:35 36.833347 -65.804341 237 32077ft 447kts
27-May-17 11:36 36.762487 -65.931318 237 32076ft 448kts
27-May-17 11:37 36.691466 -66.058114 237 32077ft 447kts
27-May-17 11:38 36.620169 -66.184944 237 32076ft 448kts
27-May-17 11:39 36.549098 -66.310893 237 32076ft 448kts
27-May-17 11:40 36.477672 -66.437004 237 32075ft 448kts
27-May-17 11:41 36.406128 -66.562857 237 32076ft 448kts
27-May-17 11:42 36.334296 -66.688809 236 32076ft 448kts
27-May-17 11:43 36.262590 -66.814098 236 32077ft 448kts
27-May-17 11:44 36.190813 -66.938941 236 32076ft 448kts
27-May-17 11:45 36.118803 -67.063808 236 32076ft 448kts
27-May-17 11:46 36.046683 -67.188381 236 32076ft 448kts
27-May-17 11:47 35.974296 -67.312956 236 32076ft 448kts
27-May-17 11:48 35.901716 -67.437418 236 32075ft 448kts
27-May-17 11:49 35.829295 -67.560904 236 32076ft 448kts
27-May-17 11:50 35.756754 -67.684446 236 32077ft 448kts
27-May-17 11:51 35.683834 -67.808244 235 32077ft 448kts
27-May-17 11:52 35.610827 -67.931659 235 32076ft 448kts
27-May-17 11:53 35.537699 -68.054840 235 32076ft 448kts
27-May-17 11:54 35.464652 -68.177456 235 32076ft 448kts
27-May-17 11:55 35.391335 -68.300089 235 32076ft 448kts
27-May-17 11:56 35.317853 -68.422568 235 32076ft 448kts
27-May-17 11:57 35.244420 -68.544541 235 32076ft 448kts
27-May-17 11:58 35.171575 -68.665125 235 32078ft 448kts
27-May-17 11:59 35.097899 -68.786779 235 32076ft 448kts
27-May-17 12:00 35.024276 -68.907812 235 32076ft 448kts
27-May-17 12:01 34.950493 -69.028687 235 32076ft 448kts
27-May-17 12:02 34.876170 -69.149897 235 32076ft 448kts
27-May-17 12:03 34.802072 -69.270346 235 32076ft 448kts
27-May-17 12:04 34.727600 -69.391104 235 32076ft 448kts
27-May-17 12:05 34.653377 -69.511050 235 32075ft 448kts
27-May-17 12:06 34.578908 -69.630992 235 32075ft 448kts
27-May-17 12:07 34.504389 -69.750735 234 32077ft 448kts
27-May-17 12:08 34.429709 -69.870225 234 32008ft 447kts
27-May-17 12:09 34.355126 -69.989145 234 32063ft 450kts
27-May-17 12:10 34.280432 -70.107852 234 32002ft 448kts
27-May-17 12:11 34.205247 -70.226940 234 31992ft 449kts
27-May-17 12:12 34.129684 -70.346236 234 31994ft 449kts
27-May-17 12:13 34.054209 -70.464996 234 31995ft 449kts
27-May-17 12:14 33.978698 -70.583425 234 31995ft 449kts
27-May-17 12:15 33.903021 -70.701815 234 31996ft 449kts
27-May-17 12:16 33.827128 -70.819882 234 31995ft 449kts
27-May-17 12:17 33.751290 -70.937647 234 31996ft 449kts
27-May-17 12:18 33.675360 -71.055176 234 31995ft 449kts
27-May-17 12:19 33.599002 -71.172949 234 31996ft 449kts
27-May-17 12:20 33.522773 -71.290140 234 31995ft 449kts
27-May-17 12:21 33.446490 -71.407042 234 31995ft 449kts
27-May-17 12:22 33.369966 -71.523937 234 31994ft 449kts
27-May-17 12:23 33.293258 -71.640741 234 31994ft 449kts
27-May-17 12:24 33.216508 -71.757361 233 31996ft 449kts
27-May-17 12:25 33.139771 -71.873479 233 31995ft 449kts
27-May-17 12:26 33.062719 -71.989699 233 31995ft 449kts
27-May-17 12:27 32.985759 -72.105393 234 31996ft 451kts
27-May-17 12:28 32.908232 -72.221600 234 31995ft 450kts
27-May-17 12:29 32.830833 -72.337022 234 31995ft 450kts
27-May-17 12:30 32.753068 -72.452827 234 31994ft 450kts
27-May-17 12:31 32.675642 -72.567786 234 31995ft 450kts
27-May-17 12:32 32.597994 -72.682777 233 31996ft 451kts
27-May-17 12:33 32.519895 -72.798105 233 31996ft 450kts
27-May-17 12:34 32.442104 -72.912544 233 31995ft 450kts
27-May-17 12:35 32.364518 -73.026124 234 31997ft 438kts
27-May-17 12:36 32.287766 -73.138551 234 31995ft 443kts
27-May-17 12:37 32.210811 -73.250743 234 31994ft 443kts
27-May-17 12:38 32.133828 -73.362630 234 31994ft 443kts
27-May-17 12:39 32.056601 -73.474542 234 31994ft 443kts
27-May-17 12:40 31.979331 -73.586185 234 31995ft 443kts
27-May-17 12:41 31.901979 -73.697705 233 31996ft 443kts
27-May-17 12:42 31.824411 -73.808953 233 31995ft 443kts
27-May-17 12:43 31.747122 -73.919616 233 31996ft 442kts
27-May-17 12:44 31.669840 -74.029959 233 31957ft 443kts
27-May-17 12:45 31.592316 -74.140338 233 31974ft 452kts
27-May-17 12:46 31.509991 -74.257184 233 31967ft 471kts
27-May-17 12:47 31.427301 -74.374189 233 31967ft 471kts
27-May-17 12:48 31.344545 -74.490924 233 31967ft 470kts
27-May-17 12:49 31.261211 -74.608144 233 31966ft 471kts
27-May-17 12:50 31.178208 -74.724647 233 31969ft 471kts
27-May-17 12:51 31.094829 -74.841224 233 31969ft 472kts
27-May-17 12:52 31.011490 -74.957381 233 31969ft 472kts
27-May-17 12:53 30.927836 -75.073631 233 31991ft 472kts
27-May-17 12:54 30.845064 -75.188141 232 31992ft 472kts
27-May-17 12:55 30.761109 -75.304073 233 31997ft 472kts
27-May-17 12:56 30.677004 -75.419915 233 31996ft 472kts
27-May-17 12:57 30.592826 -75.535511 233 31994ft 472kts
27-May-17 12:58 30.508794 -75.650569 232 31994ft 473kts
27-May-17 12:59 30.424265 -75.766089 232 31996ft 473kts
27-May-17 13:00 30.339564 -75.881387 232 31996ft 473kts
27-May-17 13:01 30.254738 -75.996568 232 32001ft 476kts
27-May-17 13:02 30.169966 -76.111232 232 31997ft 474kts
27-May-17 13:03 30.084835 -76.226102 232 31995ft 474kts
27-May-17 13:04 29.999935 -76.340333 232 31995ft 474kts
27-May-17 13:05 29.914650 -76.454750 232 32074ft 475kts
27-May-17 13:06 29.829426 -76.568569 232 32073ft 475kts
27-May-17 13:07 29.743639 -76.683053 232 32077ft 475kts
27-May-17 13:08 29.657879 -76.797220 231 32080ft 478kts
27-May-17 13:09 29.602061 -76.927542 262 32081ft 465kts
27-May-17 13:10 29.583039 -77.072978 264 32075ft 463kts
27-May-17 13:11 29.565805 -77.218192 264 32076ft 463kts
27-May-17 13:12 29.548418 -77.363962 264 32076ft 463kts
27-May-17 13:13 29.530928 -77.509277 264 32580ft 466kts
27-May-17 13:14 29.513332 -77.654055 264 34154ft 457kts
27-May-17 13:15 29.495964 -77.795691 264 35444ft 452kts
27-May-17 13:16 29.478479 -77.937033 264 36554ft 447kts
27-May-17 13:17 29.461021 -78.076890 264 37385ft 446kts
27-May-17 13:18 29.443386 -78.216889 264 38072ft 442kts
27-May-17 13:19 29.425658 -78.356459 264 38042ft 445kts
27-May-17 13:20 29.407855 -78.495425 264 38048ft 445kts
27-May-17 13:21 29.376963 -78.632111 254 38054ft 448kts
27-May-17 13:22 29.338448 -78.760731 253 38048ft 449kts
27-May-17 13:23 29.298994 -78.890357 253 38050ft 449kts
27-May-17 13:24 29.266206 -78.998699 253 38055ft 449kts
27-May-17 13:25 29.227254 -79.132739 256 38054ft 448kts
27-May-17 13:26 29.179945 -79.285470 252 38054ft 449kts
27-May-17 13:27 29.145993 -79.396560 253 38054ft 449kts
27-May-17 13:28 29.107662 -79.526366 253 37509ft 450kts
27-May-17 13:29 29.069242 -79.652272 253 36617ft 453kts
27-May-17 13:30 29.041420 -79.742787 253 36029ft 452kts
27-May-17 13:31 28.999389 -79.880130 253 32631ft 484kts
27-May-17 13:32 28.947135 -80.050108 253 29087ft 490kts
27-May-17 13:33 28.902761 -80.194414 253 26605ft 482kts
27-May-17 13:34 28.868618 -80.303404 252 25127ft 456kts
27-May-17 13:35 28.830636 -80.437892 263 22240ft 435kts
27-May-17 13:36 28.811098 -80.569796 263 19934ft 420kts
27-May-17 13:37 28.792918 -80.694662 262 17831ft 407kts
27-May-17 13:38 28.775151 -80.818928 264 15721ft 397kts
27-May-17 13:39 28.759759 -80.941358 261 13927ft 384kts
27-May-17 13:40 28.738168 -81.060518 259 11484ft 381kts
27-May-17 13:41 28.680900 -81.141862 204 10333ft 326kts
27-May-17 13:42 28.599865 -81.170514 195 9153ft 298kts
27-May-17 13:43 28.520060 -81.186752 181 8176ft 296kts
27-May-17 13:44 28.438894 -81.187346 181 7192ft 291kts
27-May-17 13:45 28.359317 -81.187431 181 6204ft 287kts
27-May-17 13:46 28.281663 -81.187440 181 5146ft 272kts
27-May-17 13:47 28.211170 -81.187425 181 4992ft 242kts
27-May-17 13:48 28.154290 -81.207383 260 4757ft 227kts
27-May-17 13:49 28.161334 -81.277424 274 4485ft 226kts
27-May-17 13:50 28.200577 -81.304408 28 3488ft 228kts
27-May-17 13:51 28.258793 -81.294397 358 2972ft 195kts
27-May-17 13:52 28.310164 -81.294555 359 2076ft 177kts
27-May-17 13:53 28.355663 -81.294974 356 1107ft 148kts
27-May-17 13:54 28.393563 -81.295351 358 403ft 140kts
27-May-17 13:55 28.421525 -81.295741 358 109ft 33kts
27-May-17 13:56 28.425949 -81.297580 274 109ft 10kts
27-May-17 13:57 28.426697 -81.300299 232 109ft 0kts
27-May-17 13:58 28.426648 -81.300371 232 109ft 0kts
27-May-17 13:59 28.426648 -81.300371 232 109ft 0kts
27-May-17 14:00 28.426648 -81.300371 232 109ft 0kts
27-May-17 14:01 28.393690 -81.295356 358 401ft 140kts
27-May-17 14:02 28.357782 -81.295109 357 1076ft 144kts
27-May-17 14:03 28.395674 -81.295424 358 377ft 141kts
27-May-17 14:04 28.405413 -81.295624 359 170ft 137kts
27-May-17 14:05 28.404807 -81.295621 359 183ft 137kts
27-May-17 14:06 28.406256 -81.295624 359 155ft 138kts
27-May-17 14:07 28.419951 -81.295742 359 109ft 46kts
27-May-17 14:08 28.425901 -81.297183 281 109ft 6kts
27-May-17 14:09 28.426776 -81.300185 231 109ft 4kts

Navigation Log

Ident Type
Flight plan parsing failed, navigation log unavailable